sensor_id;sensor_type;location;lat;lon;timestamp;P1;durP1;ratioP1;P2;durP2;ratioP2
53391;SDS011;41667;51.922;8.850;2023-09-30T00:01:44;9.45;;;2.80;;
53391;SDS011;41667;51.922;8.850;2023-09-30T00:04:09;9.93;;;2.63;;
53391;SDS011;41667;51.922;8.850;2023-09-30T00:06:34;9.52;;;2.60;;
53391;SDS011;41667;51.922;8.850;2023-09-30T00:09:00;7.50;;;3.43;;
53391;SDS011;41667;51.922;8.850;2023-09-30T00:11:25;10.03;;;3.80;;
53391;SDS011;41667;51.922;8.850;2023-09-30T00:13:50;9.20;;;3.07;;
53391;SDS011;41667;51.922;8.850;2023-09-30T00:16:15;13.38;;;2.95;;
53391;SDS011;41667;51.922;8.850;2023-09-30T00:18:42;6.93;;;2.35;;
53391;SDS011;41667;51.922;8.850;2023-09-30T00:21:07;7.73;;;2.63;;
53391;SDS011;41667;51.922;8.850;2023-09-30T00:23:33;7.87;;;2.90;;
53391;SDS011;41667;51.922;8.850;2023-09-30T00:25:58;8.95;;;4.22;;
53391;SDS011;41667;51.922;8.850;2023-09-30T00:28:23;9.57;;;2.17;;
53391;SDS011;41667;51.922;8.850;2023-09-30T00:30:48;8.70;;;3.27;;
53391;SDS011;41667;51.922;8.850;2023-09-30T00:33:15;8.88;;;2.78;;
53391;SDS011;41667;51.922;8.850;2023-09-30T00:35:40;6.88;;;2.13;;
53391;SDS011;41667;51.922;8.850;2023-09-30T00:38:05;10.25;;;3.42;;
53391;SDS011;41667;51.922;8.850;2023-09-30T00:40:30;8.18;;;2.80;;
53391;SDS011;41667;51.922;8.850;2023-09-30T00:42:55;10.57;;;3.08;;
53391;SDS011;41667;51.922;8.850;2023-09-30T00:45:21;7.47;;;2.47;;
53391;SDS011;41667;51.922;8.850;2023-09-30T00:47:46;5.82;;;2.95;;
53391;SDS011;41667;51.922;8.850;2023-09-30T00:50:11;14.15;;;3.08;;
53391;SDS011;41667;51.922;8.850;2023-09-30T00:52:38;6.75;;;3.28;;
53391;SDS011;41667;51.922;8.850;2023-09-30T00:55:04;13.20;;;2.72;;
53391;SDS011;41667;51.922;8.850;2023-09-30T00:57:30;9.55;;;3.17;;
53391;SDS011;41667;51.922;8.850;2023-09-30T00:59:56;8.67;;;2.90;;
53391;SDS011;41667;51.922;8.850;2023-09-30T01:02:21;15.75;;;3.22;;
53391;SDS011;41667;51.922;8.850;2023-09-30T01:04:47;10.43;;;2.83;;
53391;SDS011;41667;51.922;8.850;2023-09-30T01:07:13;11.73;;;2.90;;
53391;SDS011;41667;51.922;8.850;2023-09-30T01:09:38;7.63;;;2.33;;
53391;SDS011;41667;51.922;8.850;2023-09-30T01:12:03;9.13;;;2.87;;
53391;SDS011;41667;51.922;8.850;2023-09-30T01:14:30;12.02;;;3.85;;
53391;SDS011;41667;51.922;8.850;2023-09-30T01:16:56;12.55;;;3.20;;
53391;SDS011;41667;51.922;8.850;2023-09-30T01:19:21;14.95;;;2.88;;
53391;SDS011;41667;51.922;8.850;2023-09-30T01:21:50;11.93;;;3.60;;
53391;SDS011;41667;51.922;8.850;2023-09-30T01:24:15;7.25;;;3.42;;
53391;SDS011;41667;51.922;8.850;2023-09-30T01:26:40;13.13;;;3.27;;
53391;SDS011;41667;51.922;8.850;2023-09-30T01:29:07;10.68;;;2.92;;
53391;SDS011;41667;51.922;8.850;2023-09-30T01:31:35;7.20;;;3.13;;
53391;SDS011;41667;51.922;8.850;2023-09-30T01:34:01;12.32;;;2.63;;
53391;SDS011;41667;51.922;8.850;2023-09-30T01:36:26;7.97;;;2.53;;
53391;SDS011;41667;51.922;8.850;2023-09-30T01:38:51;7.32;;;2.90;;
53391;SDS011;41667;51.922;8.850;2023-09-30T01:41:16;9.47;;;2.90;;
53391;SDS011;41667;51.922;8.850;2023-09-30T01:43:42;13.33;;;3.20;;
53391;SDS011;41667;51.922;8.850;2023-09-30T01:46:07;13.33;;;4.10;;
53391;SDS011;41667;51.922;8.850;2023-09-30T01:48:32;6.15;;;3.30;;
53391;SDS011;41667;51.922;8.850;2023-09-30T01:50:57;6.43;;;2.58;;
53391;SDS011;41667;51.922;8.850;2023-09-30T01:53:22;7.07;;;2.67;;
53391;SDS011;41667;51.922;8.850;2023-09-30T01:55:47;12.83;;;3.00;;
53391;SDS011;41667;51.922;8.850;2023-09-30T01:58:13;9.07;;;3.22;;
53391;SDS011;41667;51.922;8.850;2023-09-30T02:00:38;12.48;;;3.97;;
53391;SDS011;41667;51.922;8.850;2023-09-30T02:03:03;13.13;;;3.67;;
53391;SDS011;41667;51.922;8.850;2023-09-30T02:05:28;13.27;;;2.80;;
53391;SDS011;41667;51.922;8.850;2023-09-30T02:07:54;10.83;;;3.13;;
53391;SDS011;41667;51.922;8.850;2023-09-30T02:10:19;12.07;;;3.08;;
53391;SDS011;41667;51.922;8.850;2023-09-30T02:12:45;6.22;;;2.72;;
53391;SDS011;41667;51.922;8.850;2023-09-30T02:15:10;6.90;;;3.35;;
53391;SDS011;41667;51.922;8.850;2023-09-30T02:17:36;14.82;;;3.35;;
53391;SDS011;41667;51.922;8.850;2023-09-30T02:20:01;10.37;;;3.20;;
53391;SDS011;41667;51.922;8.850;2023-09-30T02:22:30;28.13;;;3.15;;
53391;SDS011;41667;51.922;8.850;2023-09-30T02:24:56;7.33;;;2.63;;
53391;SDS011;41667;51.922;8.850;2023-09-30T02:27:21;12.50;;;3.00;;
53391;SDS011;41667;51.922;8.850;2023-09-30T02:29:46;6.20;;;2.30;;
53391;SDS011;41667;51.922;8.850;2023-09-30T02:32:12;9.43;;;2.92;;
53391;SDS011;41667;51.922;8.850;2023-09-30T02:34:39;7.10;;;2.88;;
53391;SDS011;41667;51.922;8.850;2023-09-30T02:37:04;8.87;;;2.47;;
53391;SDS011;41667;51.922;8.850;2023-09-30T02:39:29;10.57;;;3.10;;
53391;SDS011;41667;51.922;8.850;2023-09-30T02:41:54;10.80;;;3.10;;
53391;SDS011;41667;51.922;8.850;2023-09-30T02:44:19;8.88;;;3.05;;
53391;SDS011;41667;51.922;8.850;2023-09-30T02:46:44;10.10;;;2.83;;
53391;SDS011;41667;51.922;8.850;2023-09-30T02:49:10;12.57;;;2.65;;
53391;SDS011;41667;51.922;8.850;2023-09-30T02:51:36;8.63;;;3.40;;
53391;SDS011;41667;51.922;8.850;2023-09-30T02:54:02;10.50;;;2.42;;
53391;SDS011;41667;51.922;8.850;2023-09-30T02:56:27;20.38;;;3.58;;
53391;SDS011;41667;51.922;8.850;2023-09-30T02:58:55;14.80;;;4.22;;
53391;SDS011;41667;51.922;8.850;2023-09-30T03:01:20;9.65;;;3.17;;
53391;SDS011;41667;51.922;8.850;2023-09-30T03:03:45;14.05;;;3.58;;
53391;SDS011;41667;51.922;8.850;2023-09-30T03:06:11;10.40;;;3.85;;
53391;SDS011;41667;51.922;8.850;2023-09-30T03:08:36;13.83;;;4.03;;
53391;SDS011;41667;51.922;8.850;2023-09-30T03:11:02;7.47;;;3.13;;
53391;SDS011;41667;51.922;8.850;2023-09-30T03:13:27;11.68;;;2.83;;
53391;SDS011;41667;51.922;8.850;2023-09-30T03:15:52;18.30;;;3.97;;
53391;SDS011;41667;51.922;8.850;2023-09-30T03:18:17;9.43;;;3.40;;
53391;SDS011;41667;51.922;8.850;2023-09-30T03:20:43;12.75;;;3.35;;
53391;SDS011;41667;51.922;8.850;2023-09-30T03:23:08;14.68;;;3.70;;
53391;SDS011;41667;51.922;8.850;2023-09-30T03:25:33;13.90;;;3.93;;
53391;SDS011;41667;51.922;8.850;2023-09-30T03:27:58;12.77;;;3.10;;
53391;SDS011;41667;51.922;8.850;2023-09-30T03:30:23;9.15;;;3.17;;
53391;SDS011;41667;51.922;8.850;2023-09-30T03:32:49;7.85;;;2.85;;
53391;SDS011;41667;51.922;8.850;2023-09-30T03:35:14;6.43;;;3.07;;
53391;SDS011;41667;51.922;8.850;2023-09-30T03:37:43;11.50;;;3.40;;
53391;SDS011;41667;51.922;8.850;2023-09-30T03:40:08;12.32;;;3.63;;
53391;SDS011;41667;51.922;8.850;2023-09-30T03:42:44;7.03;;;3.92;;
53391;SDS011;41667;51.922;8.850;2023-09-30T03:45:10;8.63;;;3.50;;
53391;SDS011;41667;51.922;8.850;2023-09-30T03:47:35;6.68;;;2.92;;
53391;SDS011;41667;51.922;8.850;2023-09-30T03:50:02;13.45;;;3.95;;
53391;SDS011;41667;51.922;8.850;2023-09-30T03:52:28;10.73;;;3.92;;
53391;SDS011;41667;51.922;8.850;2023-09-30T03:54:53;8.83;;;3.60;;
53391;SDS011;41667;51.922;8.850;2023-09-30T03:57:19;22.10;;;3.17;;
53391;SDS011;41667;51.922;8.850;2023-09-30T03:59:44;10.85;;;3.53;;
53391;SDS011;41667;51.922;8.850;2023-09-30T04:02:11;6.60;;;2.63;;
53391;SDS011;41667;51.922;8.850;2023-09-30T04:04:37;13.98;;;3.53;;
53391;SDS011;41667;51.922;8.850;2023-09-30T04:07:02;15.15;;;3.38;;
53391;SDS011;41667;51.922;8.850;2023-09-30T04:09:30;9.20;;;3.42;;
53391;SDS011;41667;51.922;8.850;2023-09-30T04:11:57;13.90;;;4.10;;
53391;SDS011;41667;51.922;8.850;2023-09-30T04:14:22;13.27;;;3.27;;
53391;SDS011;41667;51.922;8.850;2023-09-30T04:16:47;10.13;;;2.45;;
53391;SDS011;41667;51.922;8.850;2023-09-30T04:19:12;11.85;;;3.33;;
53391;SDS011;41667;51.922;8.850;2023-09-30T04:21:38;8.20;;;2.75;;
53391;SDS011;41667;51.922;8.850;2023-09-30T04:24:04;11.02;;;3.30;;
53391;SDS011;41667;51.922;8.850;2023-09-30T04:26:31;11.02;;;3.15;;
53391;SDS011;41667;51.922;8.850;2023-09-30T04:28:56;6.80;;;2.47;;
53391;SDS011;41667;51.922;8.850;2023-09-30T04:31:22;8.97;;;3.97;;
53391;SDS011;41667;51.922;8.850;2023-09-30T04:33:48;15.98;;;3.22;;
53391;SDS011;41667;51.922;8.850;2023-09-30T04:36:15;10.88;;;3.08;;
53391;SDS011;41667;51.922;8.850;2023-09-30T04:38:41;9.60;;;2.80;;
53391;SDS011;41667;51.922;8.850;2023-09-30T04:41:06;9.47;;;3.40;;
53391;SDS011;41667;51.922;8.850;2023-09-30T04:43:34;12.43;;;3.15;;
53391;SDS011;41667;51.922;8.850;2023-09-30T04:45:59;9.02;;;3.08;;
53391;SDS011;41667;51.922;8.850;2023-09-30T04:48:24;21.13;;;3.57;;
53391;SDS011;41667;51.922;8.850;2023-09-30T04:50:50;12.43;;;3.42;;
53391;SDS011;41667;51.922;8.850;2023-09-30T04:53:16;14.00;;;3.63;;
53391;SDS011;41667;51.922;8.850;2023-09-30T04:55:42;10.10;;;3.40;;
53391;SDS011;41667;51.922;8.850;2023-09-30T04:58:08;9.00;;;3.35;;
53391;SDS011;41667;51.922;8.850;2023-09-30T05:00:33;11.38;;;3.22;;
53391;SDS011;41667;51.922;8.850;2023-09-30T05:02:59;16.10;;;4.38;;
53391;SDS011;41667;51.922;8.850;2023-09-30T05:05:25;14.85;;;3.83;;
53391;SDS011;41667;51.922;8.850;2023-09-30T05:07:50;16.00;;;3.83;;
53391;SDS011;41667;51.922;8.850;2023-09-30T05:10:15;9.83;;;4.43;;
53391;SDS011;41667;51.922;8.850;2023-09-30T05:12:44;14.40;;;4.35;;
53391;SDS011;41667;51.922;8.850;2023-09-30T05:15:13;14.43;;;5.32;;
53391;SDS011;41667;51.922;8.850;2023-09-30T05:17:41;9.50;;;4.95;;
53391;SDS011;41667;51.922;8.850;2023-09-30T05:20:06;18.20;;;4.93;;
53391;SDS011;41667;51.922;8.850;2023-09-30T05:22:32;11.48;;;4.25;;
53391;SDS011;41667;51.922;8.850;2023-09-30T05:24:57;12.65;;;6.22;;
53391;SDS011;41667;51.922;8.850;2023-09-30T05:27:22;10.82;;;5.15;;
53391;SDS011;41667;51.922;8.850;2023-09-30T05:29:48;19.20;;;5.73;;
53391;SDS011;41667;51.922;8.850;2023-09-30T05:32:13;17.05;;;5.18;;
53391;SDS011;41667;51.922;8.850;2023-09-30T05:34:39;11.75;;;4.60;;
53391;SDS011;41667;51.922;8.850;2023-09-30T05:37:04;9.55;;;4.43;;
53391;SDS011;41667;51.922;8.850;2023-09-30T05:39:29;12.50;;;5.72;;
53391;SDS011;41667;51.922;8.850;2023-09-30T05:41:56;13.10;;;4.25;;
53391;SDS011;41667;51.922;8.850;2023-09-30T05:44:21;11.27;;;3.90;;
53391;SDS011;41667;51.922;8.850;2023-09-30T05:46:47;12.43;;;5.03;;
53391;SDS011;41667;51.922;8.850;2023-09-30T05:49:12;9.38;;;3.88;;
53391;SDS011;41667;51.922;8.850;2023-09-30T05:51:41;15.27;;;5.30;;
53391;SDS011;41667;51.922;8.850;2023-09-30T05:54:07;12.68;;;5.53;;
53391;SDS011;41667;51.922;8.850;2023-09-30T05:56:34;19.65;;;5.32;;
53391;SDS011;41667;51.922;8.850;2023-09-30T05:58:59;10.33;;;4.50;;
53391;SDS011;41667;51.922;8.850;2023-09-30T06:01:25;11.30;;;4.50;;
53391;SDS011;41667;51.922;8.850;2023-09-30T06:03:50;12.40;;;4.50;;
53391;SDS011;41667;51.922;8.850;2023-09-30T06:06:16;12.07;;;5.50;;
53391;SDS011;41667;51.922;8.850;2023-09-30T06:08:44;15.55;;;5.15;;
53391;SDS011;41667;51.922;8.850;2023-09-30T06:11:19;14.70;;;4.97;;
53391;SDS011;41667;51.922;8.850;2023-09-30T06:13:49;11.48;;;4.68;;
53391;SDS011;41667;51.922;8.850;2023-09-30T06:16:14;15.97;;;5.40;;
53391;SDS011;41667;51.922;8.850;2023-09-30T06:18:41;11.95;;;5.40;;
53391;SDS011;41667;51.922;8.850;2023-09-30T06:21:06;17.27;;;4.47;;
53391;SDS011;41667;51.922;8.850;2023-09-30T06:23:31;16.48;;;4.45;;
53391;SDS011;41667;51.922;8.850;2023-09-30T06:25:57;11.80;;;4.90;;
53391;SDS011;41667;51.922;8.850;2023-09-30T06:28:22;14.15;;;4.57;;
53391;SDS011;41667;51.922;8.850;2023-09-30T06:30:51;14.82;;;5.57;;
53391;SDS011;41667;51.922;8.850;2023-09-30T06:33:16;12.55;;;5.45;;
53391;SDS011;41667;51.922;8.850;2023-09-30T06:35:41;15.65;;;6.70;;
53391;SDS011;41667;51.922;8.850;2023-09-30T06:38:15;15.63;;;5.63;;
53391;SDS011;41667;51.922;8.850;2023-09-30T06:40:40;20.93;;;7.63;;
53391;SDS011;41667;51.922;8.850;2023-09-30T06:43:07;15.63;;;7.40;;
53391;SDS011;41667;51.922;8.850;2023-09-30T06:45:33;16.38;;;6.63;;
53391;SDS011;41667;51.922;8.850;2023-09-30T06:47:58;22.10;;;7.90;;
53391;SDS011;41667;51.922;8.850;2023-09-30T06:50:23;14.93;;;7.23;;
53391;SDS011;41667;51.922;8.850;2023-09-30T06:52:49;22.05;;;9.55;;
53391;SDS011;41667;51.922;8.850;2023-09-30T06:55:14;16.63;;;7.60;;
53391;SDS011;41667;51.922;8.850;2023-09-30T06:57:39;23.03;;;7.27;;
53391;SDS011;41667;51.922;8.850;2023-09-30T07:00:09;24.58;;;8.77;;
53391;SDS011;41667;51.922;8.850;2023-09-30T07:02:34;22.55;;;8.50;;
53391;SDS011;41667;51.922;8.850;2023-09-30T07:05:01;24.00;;;7.97;;
53391;SDS011;41667;51.922;8.850;2023-09-30T07:07:26;24.88;;;8.35;;
53391;SDS011;41667;51.922;8.850;2023-09-30T07:09:51;16.17;;;6.97;;
53391;SDS011;41667;51.922;8.850;2023-09-30T07:12:16;23.05;;;8.13;;
53391;SDS011;41667;51.922;8.850;2023-09-30T07:14:41;24.23;;;7.85;;
53391;SDS011;41667;51.922;8.850;2023-09-30T07:17:06;23.13;;;8.35;;
53391;SDS011;41667;51.922;8.850;2023-09-30T07:19:32;13.02;;;6.68;;
53391;SDS011;41667;51.922;8.850;2023-09-30T07:21:58;19.48;;;8.32;;
53391;SDS011;41667;51.922;8.850;2023-09-30T07:24:23;13.38;;;6.80;;
53391;SDS011;41667;51.922;8.850;2023-09-30T07:26:48;15.13;;;6.53;;
53391;SDS011;41667;51.922;8.850;2023-09-30T07:29:13;15.03;;;6.87;;
53391;SDS011;41667;51.922;8.850;2023-09-30T07:31:38;14.80;;;6.68;;
53391;SDS011;41667;51.922;8.850;2023-09-30T07:34:04;16.02;;;6.43;;
53391;SDS011;41667;51.922;8.850;2023-09-30T07:36:29;14.43;;;6.07;;
53391;SDS011;41667;51.922;8.850;2023-09-30T07:38:54;20.17;;;7.32;;
53391;SDS011;41667;51.922;8.850;2023-09-30T07:41:20;17.05;;;5.60;;
53391;SDS011;41667;51.922;8.850;2023-09-30T07:43:45;17.07;;;5.80;;
53391;SDS011;41667;51.922;8.850;2023-09-30T07:46:10;14.55;;;5.47;;
53391;SDS011;41667;51.922;8.850;2023-09-30T07:48:36;16.38;;;4.63;;
53391;SDS011;41667;51.922;8.850;2023-09-30T07:51:01;15.27;;;6.22;;
53391;SDS011;41667;51.922;8.850;2023-09-30T07:53:26;9.85;;;4.72;;
53391;SDS011;41667;51.922;8.850;2023-09-30T07:55:52;12.20;;;5.63;;
53391;SDS011;41667;51.922;8.850;2023-09-30T07:58:18;7.20;;;5.65;;
53391;SDS011;41667;51.922;8.850;2023-09-30T08:00:43;8.83;;;5.17;;
53391;SDS011;41667;51.922;8.850;2023-09-30T08:03:10;8.23;;;4.15;;
53391;SDS011;41667;51.922;8.850;2023-09-30T08:05:35;14.10;;;5.27;;
53391;SDS011;41667;51.922;8.850;2023-09-30T08:08:01;18.75;;;5.18;;
53391;SDS011;41667;51.922;8.850;2023-09-30T08:10:26;12.75;;;9.55;;
53391;SDS011;41667;51.922;8.850;2023-09-30T08:12:52;12.55;;;3.67;;
53391;SDS011;41667;51.922;8.850;2023-09-30T08:15:17;7.45;;;3.95;;
53391;SDS011;41667;51.922;8.850;2023-09-30T08:17:43;9.52;;;4.63;;
53391;SDS011;41667;51.922;8.850;2023-09-30T08:20:08;11.17;;;4.60;;
53391;SDS011;41667;51.922;8.850;2023-09-30T08:22:34;7.47;;;3.53;;
53391;SDS011;41667;51.922;8.850;2023-09-30T08:24:59;12.20;;;4.25;;
53391;SDS011;41667;51.922;8.850;2023-09-30T08:27:25;9.13;;;4.65;;
53391;SDS011;41667;51.922;8.850;2023-09-30T08:29:50;12.87;;;4.03;;
53391;SDS011;41667;51.922;8.850;2023-09-30T08:32:15;7.07;;;3.88;;
53391;SDS011;41667;51.922;8.850;2023-09-30T08:34:40;7.75;;;3.55;;
53391;SDS011;41667;51.922;8.850;2023-09-30T08:37:06;10.13;;;3.93;;
53391;SDS011;41667;51.922;8.850;2023-09-30T08:39:31;11.47;;;4.13;;
53391;SDS011;41667;51.922;8.850;2023-09-30T08:41:56;10.13;;;3.73;;
53391;SDS011;41667;51.922;8.850;2023-09-30T08:44:21;11.60;;;4.47;;
53391;SDS011;41667;51.922;8.850;2023-09-30T08:46:47;7.80;;;3.67;;
53391;SDS011;41667;51.922;8.850;2023-09-30T08:49:12;8.18;;;4.10;;
53391;SDS011;41667;51.922;8.850;2023-09-30T08:51:39;11.60;;;4.55;;
53391;SDS011;41667;51.922;8.850;2023-09-30T08:54:04;10.33;;;4.67;;
53391;SDS011;41667;51.922;8.850;2023-09-30T08:56:30;12.50;;;4.93;;
53391;SDS011;41667;51.922;8.850;2023-09-30T08:58:58;12.65;;;4.35;;
53391;SDS011;41667;51.922;8.850;2023-09-30T09:01:24;7.25;;;4.30;;
53391;SDS011;41667;51.922;8.850;2023-09-30T09:03:49;8.68;;;3.83;;
53391;SDS011;41667;51.922;8.850;2023-09-30T09:06:17;13.95;;;5.20;;
53391;SDS011;41667;51.922;8.850;2023-09-30T09:08:43;12.88;;;5.25;;
53391;SDS011;41667;51.922;8.850;2023-09-30T09:11:08;9.77;;;5.20;;
53391;SDS011;41667;51.922;8.850;2023-09-30T09:13:47;11.90;;;5.00;;
53391;SDS011;41667;51.922;8.850;2023-09-30T09:16:14;21.10;;;5.88;;
53391;SDS011;41667;51.922;8.850;2023-09-30T09:18:39;12.20;;;6.10;;
53391;SDS011;41667;51.922;8.850;2023-09-30T09:21:12;14.63;;;5.20;;
53391;SDS011;41667;51.922;8.850;2023-09-30T09:23:41;12.85;;;5.50;;
53391;SDS011;41667;51.922;8.850;2023-09-30T09:26:07;18.13;;;5.82;;
53391;SDS011;41667;51.922;8.850;2023-09-30T09:28:36;10.45;;;6.07;;
53391;SDS011;41667;51.922;8.850;2023-09-30T09:31:26;10.02;;;5.60;;
53391;SDS011;41667;51.922;8.850;2023-09-30T09:33:50;10.60;;;5.13;;
53391;SDS011;41667;51.922;8.850;2023-09-30T09:36:15;15.02;;;5.47;;
53391;SDS011;41667;51.922;8.850;2023-09-30T09:38:44;8.25;;;4.65;;
53391;SDS011;41667;51.922;8.850;2023-09-30T09:41:09;9.00;;;4.63;;
53391;SDS011;41667;51.922;8.850;2023-09-30T09:43:36;15.35;;;4.95;;
53391;SDS011;41667;51.922;8.850;2023-09-30T09:46:01;11.52;;;5.30;;
53391;SDS011;41667;51.922;8.850;2023-09-30T09:48:28;10.63;;;4.75;;
53391;SDS011;41667;51.922;8.850;2023-09-30T09:50:53;8.43;;;4.80;;
53391;SDS011;41667;51.922;8.850;2023-09-30T09:53:19;9.23;;;4.73;;
53391;SDS011;41667;51.922;8.850;2023-09-30T09:55:45;10.98;;;4.40;;
53391;SDS011;41667;51.922;8.850;2023-09-30T09:58:11;10.70;;;4.35;;
53391;SDS011;41667;51.922;8.850;2023-09-30T10:00:36;9.35;;;4.85;;
53391;SDS011;41667;51.922;8.850;2023-09-30T10:03:02;6.82;;;5.13;;
53391;SDS011;41667;51.922;8.850;2023-09-30T10:05:28;14.82;;;4.28;;
53391;SDS011;41667;51.922;8.850;2023-09-30T10:07:54;10.40;;;4.75;;
53391;SDS011;41667;51.922;8.850;2023-09-30T10:10:21;8.80;;;3.67;;
53391;SDS011;41667;51.922;8.850;2023-09-30T10:12:47;15.30;;;4.95;;
53391;SDS011;41667;51.922;8.850;2023-09-30T10:17:57;13.90;;;4.10;;
53391;SDS011;41667;51.922;8.850;2023-09-30T10:20:31;7.85;;;3.85;;
53391;SDS011;41667;51.922;8.850;2023-09-30T10:25:41;12.52;;;4.65;;
53391;SDS011;41667;51.922;8.850;2023-09-30T10:31:14;13.55;;;3.95;;
53391;SDS011;41667;51.922;8.850;2023-09-30T10:36:26;8.30;;;3.63;;
53391;SDS011;41667;51.922;8.850;2023-09-30T10:38:51;8.40;;;3.45;;
53391;SDS011;41667;51.922;8.850;2023-09-30T10:41:49;9.10;;;3.70;;
53391;SDS011;41667;51.922;8.850;2023-09-30T10:44:32;5.10;;;2.63;;
53391;SDS011;41667;51.922;8.850;2023-09-30T10:46:47;6.75;;;2.63;;
53391;SDS011;41667;51.922;8.850;2023-09-30T10:49:18;7.18;;;2.97;;
53391;SDS011;41667;51.922;8.850;2023-09-30T10:51:56;4.47;;;2.60;;
53391;SDS011;41667;51.922;8.850;2023-09-30T10:54:22;10.35;;;3.05;;
53391;SDS011;41667;51.922;8.850;2023-09-30T10:56:50;8.48;;;3.00;;
53391;SDS011;41667;51.922;8.850;2023-09-30T10:59:22;9.85;;;2.78;;
53391;SDS011;41667;51.922;8.850;2023-09-30T11:04:13;4.55;;;2.30;;
53391;SDS011;41667;51.922;8.850;2023-09-30T11:06:42;9.63;;;2.80;;
53391;SDS011;41667;51.922;8.850;2023-09-30T11:09:07;6.15;;;2.95;;
53391;SDS011;41667;51.922;8.850;2023-09-30T11:11:39;8.90;;;3.13;;
53391;SDS011;41667;51.922;8.850;2023-09-30T11:17:02;6.95;;;3.55;;
53391;SDS011;41667;51.922;8.850;2023-09-30T11:19:35;11.40;;;4.68;;
53391;SDS011;41667;51.922;8.850;2023-09-30T11:22:02;9.93;;;4.30;;
53391;SDS011;41667;51.922;8.850;2023-09-30T11:24:27;6.10;;;3.70;;
53391;SDS011;41667;51.922;8.850;2023-09-30T11:26:54;6.47;;;3.30;;
53391;SDS011;41667;51.922;8.850;2023-09-30T11:29:20;5.20;;;2.45;;
53391;SDS011;41667;51.922;8.850;2023-09-30T11:31:49;9.18;;;2.72;;
53391;SDS011;41667;51.922;8.850;2023-09-30T11:34:16;6.53;;;2.50;;
53391;SDS011;41667;51.922;8.850;2023-09-30T11:36:47;7.43;;;2.75;;
53391;SDS011;41667;51.922;8.850;2023-09-30T11:39:20;4.25;;;2.08;;
53391;SDS011;41667;51.922;8.850;2023-09-30T11:41:46;9.25;;;2.03;;
53391;SDS011;41667;51.922;8.850;2023-09-30T11:44:11;3.17;;;2.20;;
53391;SDS011;41667;51.922;8.850;2023-09-30T11:46:48;5.15;;;2.35;;
53391;SDS011;41667;51.922;8.850;2023-09-30T11:49:23;4.90;;;1.92;;
53391;SDS011;41667;51.922;8.850;2023-09-30T11:51:49;6.18;;;2.38;;
53391;SDS011;41667;51.922;8.850;2023-09-30T11:54:14;4.17;;;2.70;;
53391;SDS011;41667;51.922;8.850;2023-09-30T11:56:39;6.68;;;2.58;;
53391;SDS011;41667;51.922;8.850;2023-09-30T11:59:05;5.05;;;1.80;;
53391;SDS011;41667;51.922;8.850;2023-09-30T12:01:30;5.53;;;1.80;;
53391;SDS011;41667;51.922;8.850;2023-09-30T12:03:58;3.78;;;1.98;;
53391;SDS011;41667;51.922;8.850;2023-09-30T12:06:24;4.15;;;2.10;;
53391;SDS011;41667;51.922;8.850;2023-09-30T12:08:49;4.60;;;2.35;;
53391;SDS011;41667;51.922;8.850;2023-09-30T12:11:16;2.67;;;2.13;;
53391;SDS011;41667;51.922;8.850;2023-09-30T12:13:42;3.67;;;1.85;;
53391;SDS011;41667;51.922;8.850;2023-09-30T12:16:09;7.30;;;2.67;;
53391;SDS011;41667;51.922;8.850;2023-09-30T12:18:34;8.68;;;2.80;;
53391;SDS011;41667;51.922;8.850;2023-09-30T12:20:59;6.03;;;2.63;;
53391;SDS011;41667;51.922;8.850;2023-09-30T12:23:25;3.88;;;2.22;;
53391;SDS011;41667;51.922;8.850;2023-09-30T12:25:50;4.13;;;2.70;;
53391;SDS011;41667;51.922;8.850;2023-09-30T12:28:15;4.43;;;2.47;;
53391;SDS011;41667;51.922;8.850;2023-09-30T12:30:42;5.90;;;2.53;;
53391;SDS011;41667;51.922;8.850;2023-09-30T12:33:08;4.25;;;2.47;;
53391;SDS011;41667;51.922;8.850;2023-09-30T12:35:33;6.75;;;3.45;;
53391;SDS011;41667;51.922;8.850;2023-09-30T12:37:59;5.30;;;2.03;;
53391;SDS011;41667;51.922;8.850;2023-09-30T12:40:24;5.85;;;2.25;;
53391;SDS011;41667;51.922;8.850;2023-09-30T12:42:49;5.72;;;2.38;;
53391;SDS011;41667;51.922;8.850;2023-09-30T12:45:14;7.05;;;2.20;;
53391;SDS011;41667;51.922;8.850;2023-09-30T12:47:39;5.75;;;2.60;;
53391;SDS011;41667;51.922;8.850;2023-09-30T12:50:05;3.80;;;2.50;;
53391;SDS011;41667;51.922;8.850;2023-09-30T12:52:33;6.18;;;2.63;;
53391;SDS011;41667;51.922;8.850;2023-09-30T12:54:59;5.10;;;2.40;;
53391;SDS011;41667;51.922;8.850;2023-09-30T12:57:24;3.93;;;2.40;;
53391;SDS011;41667;51.922;8.850;2023-09-30T12:59:49;7.03;;;2.27;;
53391;SDS011;41667;51.922;8.850;2023-09-30T13:02:15;4.07;;;2.10;;
53391;SDS011;41667;51.922;8.850;2023-09-30T13:04:40;4.85;;;1.75;;
53391;SDS011;41667;51.922;8.850;2023-09-30T13:07:09;6.85;;;2.45;;
53391;SDS011;41667;51.922;8.850;2023-09-30T13:09:34;4.43;;;2.15;;
53391;SDS011;41667;51.922;8.850;2023-09-30T13:11:59;6.55;;;3.05;;
53391;SDS011;41667;51.922;8.850;2023-09-30T13:14:25;5.93;;;3.25;;
53391;SDS011;41667;51.922;8.850;2023-09-30T13:16:53;5.85;;;2.97;;
53391;SDS011;41667;51.922;8.850;2023-09-30T13:19:18;5.17;;;3.00;;
53391;SDS011;41667;51.922;8.850;2023-09-30T13:21:46;5.45;;;2.33;;
53391;SDS011;41667;51.922;8.850;2023-09-30T13:24:11;7.03;;;3.22;;
53391;SDS011;41667;51.922;8.850;2023-09-30T13:26:37;6.60;;;2.95;;
53391;SDS011;41667;51.922;8.850;2023-09-30T13:29:02;6.50;;;3.67;;
53391;SDS011;41667;51.922;8.850;2023-09-30T13:31:30;5.35;;;2.80;;
53391;SDS011;41667;51.922;8.850;2023-09-30T13:33:55;4.88;;;3.67;;
53391;SDS011;41667;51.922;8.850;2023-09-30T13:36:20;4.30;;;2.17;;
53391;SDS011;41667;51.922;8.850;2023-09-30T13:38:45;5.82;;;1.88;;
53391;SDS011;41667;51.922;8.850;2023-09-30T13:41:11;7.22;;;2.55;;
53391;SDS011;41667;51.922;8.850;2023-09-30T13:43:37;7.85;;;2.58;;
53391;SDS011;41667;51.922;8.850;2023-09-30T13:46:04;4.25;;;2.85;;
53391;SDS011;41667;51.922;8.850;2023-09-30T13:48:31;10.07;;;2.63;;
53391;SDS011;41667;51.922;8.850;2023-09-30T13:51:03;4.73;;;2.00;;
53391;SDS011;41667;51.922;8.850;2023-09-30T13:53:28;4.72;;;1.88;;
53391;SDS011;41667;51.922;8.850;2023-09-30T13:55:53;4.78;;;1.80;;
53391;SDS011;41667;51.922;8.850;2023-09-30T13:58:18;3.47;;;1.80;;
53391;SDS011;41667;51.922;8.850;2023-09-30T14:00:47;4.47;;;2.40;;
53391;SDS011;41667;51.922;8.850;2023-09-30T14:03:17;4.88;;;1.88;;
53391;SDS011;41667;51.922;8.850;2023-09-30T14:05:43;5.25;;;2.00;;
53391;SDS011;41667;51.922;8.850;2023-09-30T14:08:10;3.97;;;1.67;;
53391;SDS011;41667;51.922;8.850;2023-09-30T14:10:35;4.33;;;2.17;;
53391;SDS011;41667;51.922;8.850;2023-09-30T14:13:01;8.38;;;2.00;;
53391;SDS011;41667;51.922;8.850;2023-09-30T14:15:26;5.30;;;2.37;;
53391;SDS011;41667;51.922;8.850;2023-09-30T14:17:53;5.25;;;2.30;;
53391;SDS011;41667;51.922;8.850;2023-09-30T14:20:18;4.93;;;1.85;;
53391;SDS011;41667;51.922;8.850;2023-09-30T14:22:43;4.70;;;2.25;;
53391;SDS011;41667;51.922;8.850;2023-09-30T14:25:08;3.45;;;1.77;;
53391;SDS011;41667;51.922;8.850;2023-09-30T14:27:34;8.93;;;1.93;;
53391;SDS011;41667;51.922;8.850;2023-09-30T14:29:59;2.72;;;1.60;;
53391;SDS011;41667;51.922;8.850;2023-09-30T14:32:25;2.95;;;1.65;;
53391;SDS011;41667;51.922;8.850;2023-09-30T14:34:50;4.30;;;2.05;;
53391;SDS011;41667;51.922;8.850;2023-09-30T14:37:16;6.95;;;2.05;;
53391;SDS011;41667;51.922;8.850;2023-09-30T14:39:42;5.78;;;2.28;;
53391;SDS011;41667;51.922;8.850;2023-09-30T14:42:07;5.87;;;2.40;;
53391;SDS011;41667;51.922;8.850;2023-09-30T14:44:32;4.40;;;2.00;;
53391;SDS011;41667;51.922;8.850;2023-09-30T14:46:58;4.00;;;2.38;;
53391;SDS011;41667;51.922;8.850;2023-09-30T14:49:23;4.90;;;1.83;;
53391;SDS011;41667;51.922;8.850;2023-09-30T14:51:48;3.22;;;1.40;;